createdAt,value
2023-04-21T00:03:16.695Z,18.6
2023-04-21T00:09:10.465Z,21.2
2023-04-21T00:15:01.039Z,21.6
2023-04-21T00:20:52.859Z,20.1
2023-04-21T00:26:44.726Z,19.6
2023-04-21T00:32:20.653Z,19.3
2023-04-21T00:38:12.363Z,19.1
2023-04-21T00:43:49.100Z,18.9
2023-04-21T00:55:01.851Z,18.5
2023-04-21T01:00:54.330Z,21.2
2023-04-21T01:06:32.705Z,21.6
2023-04-21T01:12:08.795Z,20.1
2023-04-21T01:18:00.771Z,19.6
2023-04-21T01:23:51.983Z,19.4
2023-04-21T01:29:43.423Z,19.1
2023-04-21T01:35:35.521Z,18.9
2023-04-21T01:46:32.179Z,18.5
2023-04-21T01:52:09.072Z,21.2
2023-04-21T01:57:29.520Z,21.4
2023-04-21T02:03:22.251Z,20.1
2023-04-21T02:09:14.529Z,19.6
2023-04-21T02:15:05.862Z,19.3
2023-04-21T02:21:14.993Z,19.1
2023-04-21T02:27:06.605Z,18.8
2023-04-21T02:33:04.575Z,18.6
2023-04-21T02:38:40.891Z,18.5
2023-04-21T02:44:32.563Z,21.6
2023-04-21T02:50:24.616Z,20.9
2023-04-21T02:56:16.300Z,19.9
2023-04-21T03:02:08.550Z,19.5
2023-04-21T03:08:01.286Z,19.3
2023-04-21T03:13:52.796Z,19
2023-04-21T03:19:45.708Z,18.8
2023-04-21T03:25:37.444Z,18.6
2023-04-21T03:31:14.132Z,19.6
2023-04-21T03:37:06.960Z,22
2023-04-21T03:43:10.100Z,20.5
2023-04-21T03:49:03.821Z,19.8
2023-04-21T03:54:56.402Z,19.4
2023-04-21T04:00:46.829Z,19.1
2023-04-21T04:06:42.558Z,18.9
2023-04-21T04:17:54.943Z,18.5
2023-04-21T04:23:46.487Z,20.4
2023-04-21T04:29:38.543Z,22.3
2023-04-21T04:35:17.421Z,20.3
2023-04-21T04:41:08.480Z,19.6
2023-04-21T04:47:02.886Z,19.3
2023-04-21T04:52:56.659Z,19
2023-04-21T04:58:47.613Z,18.8
2023-04-21T05:04:41.604Z,18.6
2023-04-21T05:10:17.201Z,18.4
2023-04-21T05:16:09.242Z,21.4
2023-04-21T05:22:04.045Z,21.2
2023-04-21T05:27:58.451Z,19.9
2023-04-21T05:33:50.564Z,19.4
2023-04-21T05:39:45.656Z,19.2
2023-04-21T05:45:37.371Z,18.9
2023-04-21T05:56:21.159Z,18.6
2023-04-21T06:02:12.612Z,20.1
2023-04-21T06:07:52.890Z,22.3
2023-04-21T06:13:28.825Z,20.3
2023-04-21T06:19:20.538Z,19.6
2023-04-21T06:24:56.352Z,19.2
2023-04-21T06:30:33.062Z,19
2023-04-21T06:36:12.906Z,18.8
2023-04-21T06:42:04.486Z,18.6
2023-04-21T06:47:57.200Z,18.6
2023-04-21T06:53:32.306Z,22.1
2023-04-21T06:59:11.414Z,20.7
2023-04-21T07:05:05.393Z,19.9
2023-04-21T07:10:56.917Z,19.5
2023-04-21T07:16:48.185Z,19.3
2023-04-21T07:22:40.823Z,19
2023-04-21T07:28:31.881Z,18.8
2023-04-21T07:34:07.543Z,18.6
2023-04-21T07:40:00.030Z,21.2
2023-04-21T07:45:50.546Z,21.4
2023-04-21T07:51:42.213Z,19.9
2023-04-21T07:57:33.905Z,19.5
2023-04-21T08:03:10.749Z,19.2
2023-04-21T08:09:10.144Z,19
2023-04-21T08:15:02.958Z,18.8
2023-04-21T08:20:39.551Z,19.1
2023-04-21T08:26:19.280Z,22.4
2023-04-21T08:31:56.813Z,20.6
2023-04-21T08:38:26.908Z,19.9
2023-04-21T08:44:22.100Z,19.5
2023-04-21T08:50:17.099Z,19.3
2023-04-21T08:56:25.162Z,19
2023-04-21T09:02:16.840Z,18.8
2023-04-21T09:07:44.759Z,19.1
2023-04-21T09:13:38.194Z,22.6
2023-04-21T09:19:14.930Z,20.6
2023-04-21T09:25:07.276Z,19.9
2023-04-21T09:31:01.075Z,19.5
2023-04-21T09:37:13.870Z,19.3
2023-04-21T09:43:50.469Z,19
2023-04-21T09:50:04.848Z,18.8
2023-04-21T09:56:56.582Z,22.5
2023-04-21T10:02:33.439Z,20.6
2023-04-21T10:08:28.670Z,19.8
2023-04-21T10:14:21.912Z,19.5
2023-04-21T10:20:14.632Z,19.2
2023-04-21T10:26:06.602Z,19
2023-04-21T10:32:09.918Z,18.8
2023-04-21T10:38:02.547Z,20.6
2023-04-21T10:43:58.729Z,20.6
2023-04-21T10:49:50.462Z,19.9
2023-04-21T10:55:43.043Z,19.4
2023-04-21T11:01:33.996Z,19.3
2023-04-21T11:07:31.081Z,19.1
2023-04-21T11:13:24.564Z,18.9
2023-04-21T11:19:15.967Z,18.8
2023-04-21T11:25:06.971Z,18.6
2023-04-21T11:30:43.793Z,18.4
2023-04-21T11:36:35.299Z,18.3
2023-04-21T11:42:27.032Z,18.2
2023-04-21T11:48:19.873Z,18.1
2023-04-21T11:53:55.667Z,17.9
2023-04-21T11:59:48.401Z,17.8
2023-04-21T12:05:42.332Z,17.7
2023-04-21T12:11:18.668Z,17.6
2023-04-21T12:17:12.359Z,17.5
2023-04-21T12:23:04.983Z,17.4
2023-04-21T12:28:56.352Z,17.4
2023-04-21T12:34:51.880Z,17.3
2023-04-21T12:40:44.521Z,17.3
2023-04-21T12:46:36.339Z,17.2
2023-04-21T12:52:14.667Z,17.1
2023-04-21T12:58:16.782Z,17.1
2023-04-21T13:04:12.379Z,17.1
2023-04-21T13:15:41.760Z,16.9
2023-04-21T13:21:33.079Z,16.9
2023-04-21T13:27:26.700Z,16.9
2023-04-21T13:33:18.845Z,16.8
2023-04-21T13:38:59.428Z,16.8
2023-04-21T13:44:53.853Z,16.8
2023-04-21T13:50:46.850Z,16.8
2023-04-21T13:56:40.293Z,16.7
2023-04-21T14:02:01.390Z,16.7
2023-04-21T14:08:00.271Z,16.7
2023-04-21T14:14:08.006Z,16.6
2023-04-21T14:20:14.662Z,16.6
2023-04-21T14:26:06.311Z,16.6
2023-04-21T14:31:43.520Z,16.6
2023-04-21T14:37:20.180Z,16.6
2023-04-21T14:42:59.349Z,16.6
2023-04-21T14:48:50.342Z,16.5
2023-04-21T14:54:41.734Z,16.5
2023-04-21T15:00:34.309Z,16.5
2023-04-21T15:06:30.165Z,16.4
2023-04-21T15:12:10.361Z,16.4
2023-04-21T15:17:32.110Z,16.4
2023-04-21T15:23:33.351Z,16.4
2023-04-21T15:29:09.242Z,16.4
2023-04-21T15:34:46.322Z,16.4
2023-04-21T15:40:21.950Z,16.4
2023-04-21T15:46:11.525Z,16.4
2023-04-21T15:52:04.754Z,16.4
2023-04-21T15:57:56.844Z,16.4
2023-04-21T16:03:51.362Z,16.4
2023-04-21T16:09:31.542Z,16.4
2023-04-21T16:15:56.712Z,16.4
2023-04-21T16:21:51.159Z,16.4
2023-04-21T16:27:44.581Z,16.4
2023-04-21T16:33:37.144Z,16.4
2023-04-21T16:39:31.508Z,16.4
2023-04-21T16:45:24.030Z,16.4
2023-04-21T16:51:17.189Z,16.3
2023-04-21T16:57:08.392Z,16.3
2023-04-21T17:03:00.670Z,16.3
2023-04-21T17:08:53.709Z,16.3
2023-04-21T17:14:44.924Z,16.3
2023-04-21T17:20:39.124Z,16.3
2023-04-21T17:26:47.673Z,16.3
2023-04-21T17:33:00.720Z,16.3
2023-04-21T17:39:14.051Z,16.3
2023-04-21T17:45:05.563Z,16.3
2023-04-21T17:50:57.336Z,16.3
2023-04-21T17:56:34.151Z,16.3
2023-04-21T18:02:25.778Z,16.3
2023-04-21T18:08:04.060Z,16.3
2023-04-21T18:13:41.630Z,16.3
2023-04-21T18:19:18.402Z,16.3
2023-04-21T18:24:55.089Z,16.3
2023-04-21T18:30:30.370Z,16.2
2023-04-21T18:36:05.916Z,16.2
2023-04-21T18:41:26.515Z,16.3
2023-04-21T18:46:48.441Z,16.3
2023-04-21T18:52:25.054Z,16.2
2023-04-21T18:58:01.196Z,16.3
2023-04-21T19:03:38.826Z,16.3
2023-04-21T19:09:31.342Z,16.3
2023-04-21T19:15:35.926Z,16.3
2023-04-21T19:21:28.661Z,16.3
2023-04-21T19:27:19.829Z,20.9
2023-04-21T19:33:11.893Z,22.8
2023-04-21T19:39:04.379Z,20.4
2023-04-21T19:44:55.854Z,19.7
2023-04-21T19:50:47.630Z,19.4
2023-04-21T19:56:57.109Z,20.4
2023-04-21T20:03:04.576Z,22.8
2023-04-21T20:08:58.098Z,20.3
2023-04-21T20:14:49.558Z,19.7
2023-04-21T20:20:41.461Z,19.4
2023-04-21T20:26:17.116Z,19.1
2023-04-21T20:32:11.529Z,21.4
2023-04-21T20:37:47.747Z,21.8
2023-04-21T20:43:36.605Z,20.1
2023-04-21T20:49:29.343Z,19.6
2023-04-21T20:55:20.495Z,19.3
2023-04-21T21:01:11.828Z,19.1
2023-04-21T21:07:08.221Z,20.3
2023-04-21T21:13:02.601Z,22.7
2023-04-21T21:18:38.760Z,20.3
2023-04-21T21:24:30.595Z,19.6
2023-04-21T21:30:21.189Z,19.4
2023-04-21T21:36:13.377Z,19.1
2023-04-21T21:42:05.478Z,18.9
2023-04-21T21:48:01.324Z,21.4
2023-04-21T21:53:37.897Z,21.6
2023-04-21T21:59:29.527Z,20
2023-04-21T22:05:26.848Z,19.5
2023-04-21T22:11:20.370Z,19.3
2023-04-21T22:17:24.018Z,19.1
2023-04-21T22:23:15.324Z,18.8
2023-04-21T22:28:50.790Z,21.7
2023-04-21T22:34:43.464Z,21.3
2023-04-21T22:40:33.793Z,19.9
2023-04-21T22:46:25.164Z,19.5
2023-04-21T22:52:17.996Z,19.2
2023-04-21T22:58:09.829Z,19
2023-04-21T23:04:03.338Z,18.8
2023-04-21T23:09:40.349Z,21.6
2023-04-21T23:15:31.831Z,21.4
2023-04-21T23:21:24.253Z,19.9
2023-04-21T23:27:16.005Z,19.5
2023-04-21T23:33:07.958Z,19.3
2023-04-21T23:38:59.652Z,19
2023-04-21T23:44:51.501Z,18.8
2023-04-21T23:56:21.265Z,21.7
